EDT,Max TemperatureF,Mean TemperatureF,Min TemperatureF,Max Dew PointF,MeanDew PointF,Min DewpointF,Max Humidity, Mean Humidity, Min Humidity, Max Sea Level PressureIn, Mean Sea Level PressureIn, Min Sea Level PressureIn, Max VisibilityMiles, Mean VisibilityMiles, Min VisibilityMiles, Max Wind SpeedMPH, Mean Wind SpeedMPH, Max Gust SpeedMPH,PrecipitationIn, CloudCover, Events, WindDirDegrees
2013-3-1,33,30,27,27,22,18,78,69,59,30.04,29.97,29.88,10,9,6,15,9,18,T,8,Snow,327
2013-3-2,30,28,26,22,20,18,81,72,63,30.03,29.99,29.95,10,6,2,16,8,21,T,8,Snow,319
2013-3-3,28,26,24,21,17,12,81,67,53,30.08,30.02,29.97,10,7,2,14,8,18,0.01,8,Snow,298
2013-3-4,39,29,19,21,16,13,77,59,40,30.17,30.12,30.07,10,10,10,13,3,16,0.00,2,,290
2013-3-5,46,34,22,29,18,12,81,55,28,30.12,29.87,29.62,10,9,2,24,6,31,0.01,6,Snow,91
2013-3-6,43,38,33,31,29,26,89,73,57,30.18,29.84,29.61,10,8,1,17,7,23,0.16,8,Snow,54
2013-3-7,42,37,31,30,28,26,85,72,59,30.36,30.28,30.19,10,7,2,16,5,20,T,7,Snow,309
2013-3-8,42,34,26,28,24,21,84,69,53,30.49,30.42,30.33,10,10,9,14,5,18,T,5,,337
2013-3-9,56,39,21,29,25,19,92,61,30,30.44,30.31,30.16,10,9,6,12,3,17,0.00,0,,148
2013-3-10,71,57,43,37,32,27,65,44,22,30.14,30.04,29.92,10,10,10,13,5,20,0.02,2,,155
2013-3-11,62,53,44,48,38,31,86,59,32,29.92,29.79,29.65,10,9,2,16,9,28,0.43,5,Rain,182
2013-3-12,45,40,34,36,29,26,76,68,59,30.02,29.93,29.80,10,9,2,12,8,20,0.01,8,Snow,251
2013-3-13,35,32,28,30,23,17,82,68,54,30.22,30.05,29.93,10,6,0,21,9,26,0.01,8,Snow,273
2013-3-14,41,32,23,21,18,15,75,60,44,30.29,30.23,30.18,10,10,10,17,6,26,0.00,2,,288
2013-3-15,51,38,24,38,28,19,82,64,46,30.16,29.98,29.86,10,10,5,12,5,17,0.03,4,Rain,249
2013-3-16,43,38,32,39,35,27,92,84,75,30.03,29.79,29.63,10,4,2,15,6,21,0.02,8,Rain,22
2013-3-17,37,34,30,25,23,21,78,67,56,30.22,30.16,30.04,10,10,10,12,5,15,0.00,7,,29
2013-3-18,49,40,31,45,35,21,92,77,61,30.14,29.81,29.64,10,6,1,18,9,26,0.58,8,Rain,136
2013-3-19,43,37,31,39,24,16,82,65,47,30.01,29.86,29.72,10,10,7,25,12,37,0.01,7,Rain,261
2013-3-20,39,31,22,21,17,13,58,51,43,30.01,29.95,29.90,10,9,2,21,9,31,T,5,Snow,274
2013-3-21,30,24,17,22,15,7,77,64,50,29.98,29.94,29.91,10,7,0,14,8,20,T,7,Snow,275
2013-3-22,40,33,25,21,18,16,75,58,40,30.06,30.01,29.97,10,10,7,13,5,18,T,5,,279
2013-3-23,47,34,20,24,21,16,84,61,37,30.09,30.05,30.01,10,9,7,14,4,21,0.00,0,,344
2013-3-24,40,35,29,29,22,20,75,62,48,30.01,29.78,29.49,10,10,10,16,7,24,0.02,3,,71
2013-3-25,36,35,33,32,31,28,96,89,82,29.83,29.54,29.40,10,4,0,13,5,17,0.27,8,Fog-Rain-Snow,252
2013-3-26,44,39,33,31,29,26,89,71,53,30.14,29.99,29.84,10,9,2,17,7,23,T,8,Snow,305
2013-3-27,43,39,34,29,27,22,82,63,43,30.22,30.17,30.11,10,9,2,21,9,26,T,8,Snow,286
2013-3-28,45,38,31,28,25,23,75,62,49,30.30,30.25,30.20,10,10,10,14,7,21,0.00,8,,296
2013-3-29,53,41,28,28,25,23,92,62,32,30.30,30.26,30.21,10,10,8,15,4,24,0.00,3,,291
2013-3-30,56,40,23,27,22,19,88,56,24,30.29,30.18,30.01,10,10,10,10,2,15,0.00,0,,149
2013-3-31,50,43,36,45,38,26,89,71,53,29.99,29.81,29.74,10,10,6,12,4,35,0.05,5,Rain,193